Time;durP1;ratioP1;P1;durP2;ratioP2;P2;SDS_P1;SDS_P2;PMS_P1;PMS_P2;Temp;Humidity;BMP_temperature;BMP_pressure;BME280_temperature;BME280_humidity;BME280_pressure;Samples;Min_cycle;Max_cycle;Signal;HPM_P1;HPM_P2
2022/07/23 00:00:34;;;;;;;8.07;7.28;;;25.50;60.60;;;24.78;66.84;96017.50;4962941;28;20067;-68
2022/07/23 00:03:00;;;;;;;8.15;7.35;;;25.40;61.10;;;24.75;68.17;96010.00;4963830;28;20039;-69
2022/07/23 00:05:26;;;;;;;9.68;7.75;;;25.40;61.50;;;24.71;68.07;96011.63;4945877;28;20066;-68
2022/07/23 00:07:51;;;;;;;7.97;7.13;;;25.40;61.60;;;24.67;68.59;96007.91;4943980;28;20150;-68
2022/07/23 00:10:17;;;;;;;9.70;7.93;;;25.40;62.10;;;24.63;68.83;96001.47;4915496;28;20141;-68
2022/07/23 00:12:43;;;;;;;10.02;7.90;;;25.30;62.00;;;24.58;69.06;95996.13;4944641;28;20479;-68
2022/07/23 00:15:09;;;;;;;8.45;7.60;;;25.20;62.60;;;24.54;69.76;96000.47;4930810;28;20440;-67
2022/07/23 00:17:35;;;;;;;9.30;7.95;;;25.10;62.90;;;24.50;69.86;95991.34;4947661;28;20534;-67
2022/07/23 00:20:01;;;;;;;9.15;7.78;;;25.10;63.00;;;24.45;70.04;96002.16;4947257;28;20070;-70
2022/07/23 00:22:28;;;;;;;8.43;7.60;;;25.10;63.20;;;24.42;70.42;96019.63;4945398;28;20039;-67
2022/07/23 00:24:54;;;;;;;8.90;8.00;;;25.00;63.80;;;24.38;70.28;96022.06;4912758;28;20141;-67
2022/07/23 00:27:19;;;;;;;8.35;7.55;;;25.00;63.10;;;24.34;70.95;96028.28;4944903;28;20063;-67
2022/07/23 00:29:45;;;;;;;9.32;8.07;;;25.00;63.50;;;24.27;71.19;96023.19;4963306;28;20090;-67
2022/07/23 00:32:11;;;;;;;10.27;8.52;;;24.90;63.80;;;24.23;70.97;96032.88;4943925;28;20055;-67
2022/07/23 00:34:36;;;;;;;9.13;7.72;;;24.90;63.70;;;24.21;71.12;96026.16;4930844;28;20480;-67
2022/07/23 00:37:02;;;;;;;8.85;7.90;;;24.90;63.60;;;24.16;70.50;96016.25;4943665;28;20540;-67
2022/07/23 00:39:28;;;;;;;8.60;7.72;;;24.80;62.70;;;24.14;70.16;96018.41;4943977;28;20479;-67
2022/07/23 00:41:54;;;;;;;8.90;8.00;;;24.80;62.60;;;24.13;70.26;96022.97;4945647;28;20871;-67
2022/07/23 00:44:24;;;;;;;9.05;8.15;;;24.80;62.40;;;24.11;71.25;96035.88;4946390;28;20574;-66
2022/07/23 00:46:58;;;;;;;8.82;7.72;;;24.80;62.90;;;24.07;71.08;96024.09;4930880;28;20055;-67
2022/07/23 00:49:26;;;;;;;8.75;7.85;;;24.70;62.70;;;24.06;70.17;96021.69;4942809;28;20070;-72
2022/07/23 00:51:52;;;;;;;8.18;7.38;;;24.70;62.50;;;24.04;69.59;96013.91;4938219;28;20142;-67
2022/07/23 00:54:19;;;;;;;9.88;7.78;;;24.70;61.90;;;24.02;69.84;96013.38;4945493;28;20123;-67
2022/07/23 00:56:45;;;;;;;11.68;7.47;;;24.70;61.80;;;23.96;68.89;96013.66;4930668;29;20630;-67
2022/07/23 00:59:11;;;;;;;8.48;7.35;;;24.50;61.00;;;23.91;68.18;96024.44;4945627;28;20043;-67
2022/07/23 01:01:37;;;;;;;8.88;6.80;;;24.40;60.90;;;23.85;68.18;96030.91;4912023;28;20057;-68
2022/07/23 01:04:02;;;;;;;8.60;7.20;;;24.40;61.00;;;23.84;67.97;96046.22;4944470;28;20063;-67
2022/07/23 01:06:28;;;;;;;9.40;7.05;;;24.40;61.00;;;23.78;67.86;96053.50;4943114;28;20070;-68
2022/07/23 01:08:54;;;;;;;7.82;6.78;;;24.30;61.10;;;23.76;68.07;96074.47;4945558;28;20043;-67
2022/07/23 01:11:21;;;;;;;7.80;7.00;;;24.30;61.20;;;23.73;68.49;96093.78;4928450;28;20035;-67
2022/07/23 01:13:46;;;;;;;8.13;7.30;;;24.30;61.50;;;23.70;68.64;96110.44;4940143;28;20438;-67
2022/07/23 01:16:12;;;;;;;10.10;7.57;;;24.30;61.80;;;23.66;68.41;96140.81;4946306;28;20043;-67
2022/07/23 01:18:38;;;;;;;15.18;8.52;;;24.20;61.40;;;23.65;67.61;96145.38;4929795;28;20562;-67
2022/07/23 01:21:03;;;;;;;12.85;8.20;;;24.20;60.60;;;23.64;67.52;96151.00;4944951;28;20652;-67
2022/07/23 01:23:29;;;;;;;19.92;7.80;;;24.20;59.90;;;23.65;66.88;96158.00;4925060;28;20043;-67
2022/07/23 01:25:55;;;;;;;11.60;7.47;;;24.30;59.40;;;23.64;65.12;96173.31;4915166;29;20472;-67
2022/07/23 01:28:21;;;;;;;6.80;6.10;;;24.30;57.70;;;23.62;63.67;96183.50;4945751;28;20522;-67
2022/07/23 01:30:47;;;;;;;14.60;5.00;;;24.20;54.90;;;23.58;62.07;96222.72;4928259;28;20053;-67
2022/07/23 01:33:12;;;;;;;8.88;4.07;;;24.10;53.20;;;23.54;59.75;96221.63;4945031;28;20036;-68
2022/07/23 01:35:38;;;;;;;5.97;4.90;;;24.10;52.10;;;23.50;59.50;96236.63;4929127;28;20090;-67
2022/07/23 01:38:04;;;;;;;8.00;5.88;;;24.10;53.40;;;23.40;61.03;96220.53;4946771;28;20044;-67
2022/07/23 01:40:30;;;;;;;10.30;6.03;;;23.80;55.60;;;23.26;61.84;96241.69;4928201;28;20054;-67
2022/07/23 01:42:55;;;;;;;10.77;6.45;;;23.60;57.80;;;23.05;63.56;96253.44;4944698;28;20050;-68
2022/07/23 01:45:21;;;;;;;9.45;7.03;;;23.30;61.40;;;22.78;66.66;96249.03;4943693;28;20427;-72
2022/07/23 01:47:47;;;;;;;11.77;7.43;;;23.00;64.20;;;22.51;68.69;96240.34;4946291;28;20050;-67
2022/07/23 01:50:13;;;;;;;9.10;6.47;;;22.60;65.90;;;22.34;69.81;96255.78;4945768;28;20107;-68
2022/07/23 01:52:39;;;;;;;9.73;7.20;;;22.60;65.80;;;22.18;71.09;96254.88;4911329;28;20027;-68
2022/07/23 01:55:05;;;;;;;11.52;7.20;;;22.50;67.30;;;22.02;72.72;96254.78;4961917;28;20039;-67
2022/07/23 01:57:31;;;;;;;9.57;6.70;;;22.30;67.90;;;21.95;74.07;96246.16;4943579;28;20467;-68
2022/07/23 01:59:57;;;;;;;11.90;7.40;;;22.50;68.10;;;21.90;74.56;96262.16;4944600;28;20110;-68
2022/07/23 02:02:23;;;;;;;12.48;6.90;;;22.40;68.60;;;21.86;75.61;96273.66;4943141;28;20078;-68
2022/07/23 02:04:48;;;;;;;13.23;6.95;;;22.40;68.80;;;21.74;76.54;96279.19;4960193;28;20059;-68
2022/07/23 02:07:14;;;;;;;7.50;5.85;;;22.10;69.60;;;21.56;76.77;96275.03;4909130;28;20440;-68
2022/07/23 02:09:40;;;;;;;11.82;6.72;;;21.90;69.90;;;21.46;77.64;96274.09;4914423;28;20116;-68
2022/07/23 02:12:06;;;;;;;6.72;5.70;;;21.90;70.30;;;21.38;78.09;96273.50;4945512;28;20043;-68
2022/07/23 02:14:31;;;;;;;7.53;5.80;;;21.90;70.60;;;21.32;79.16;96273.72;4945741;28;20727;-68
2022/07/23 02:16:57;;;;;;;8.93;5.97;;;21.80;71.00;;;21.26;80.19;96259.44;4948758;28;20463;-68
2022/07/23 02:19:23;;;;;;;7.95;6.50;;;21.80;70.90;;;21.23;80.27;96264.47;4950681;28;20498;-68
2022/07/23 02:21:49;;;;;;;7.28;6.22;;;21.80;71.00;;;21.20;81.32;96260.44;4964063;28;20131;-68
2022/07/23 02:24:14;;;;;;;7.57;6.32;;;21.80;71.80;;;21.18;81.80;96251.88;4947743;28;20141;-69
2022/07/23 02:26:40;;;;;;;11.88;6.50;;;21.90;72.00;;;21.15;82.57;96257.72;4933862;28;20143;-68
2022/07/23 02:29:06;;;;;;;10.57;6.53;;;21.80;71.90;;;21.13;83.16;96251.81;4963062;28;20043;-68
2022/07/23 02:31:32;;;;;;;8.57;6.30;;;21.80;72.70;;;21.06;83.55;96243.19;4946231;28;20062;-68
2022/07/23 02:33:57;;;;;;;10.35;6.90;;;21.70;72.20;;;21.05;84.48;96252.28;4962731;28;20122;-68
2022/07/23 02:36:23;;;;;;;8.95;6.15;;;21.80;73.50;;;21.02;86.28;96247.41;4946708;28;20059;-68
2022/07/23 02:38:49;;;;;;;10.75;6.28;;;21.70;74.50;;;21.01;87.30;96225.19;4961989;28;20409;-68
2022/07/23 02:41:15;;;;;;;9.23;6.03;;;21.80;74.70;;;21.00;88.54;96198.72;4946969;28;20098;-67
2022/07/23 02:43:40;;;;;;;9.38;6.22;;;21.70;75.30;;;20.98;87.94;96160.72;4946119;28;20075;-68
2022/07/23 02:46:06;;;;;;;10.00;5.75;;;21.80;74.60;;;20.98;88.01;96147.34;4929579;28;20090;-68
2022/07/23 02:48:32;;;;;;;9.15;5.75;;;21.80;74.10;;;20.98;87.82;96144.66;4963700;28;20110;-68
2022/07/23 02:50:58;;;;;;;7.85;5.45;;;21.80;73.80;;;20.97;87.50;96151.09;4947910;28;20035;-68
2022/07/23 02:53:24;;;;;;;7.55;5.35;;;21.70;73.80;;;20.91;88.02;96154.78;4947210;28;20411;-68
2022/07/23 02:55:49;;;;;;;9.43;5.60;;;21.60;74.40;;;20.84;88.08;96165.69;4964813;28;20515;-68
2022/07/23 02:58:15;;;;;;;8.40;5.40;;;21.60;74.90;;;20.80;88.50;96181.38;4947666;28;20039;-68
2022/07/23 03:00:41;;;;;;;7.43;5.07;;;21.60;74.20;;;20.77;88.72;96160.50;4913700;28;20050;-68
2022/07/23 03:03:07;;;;;;;7.28;4.82;;;21.60;74.30;;;20.76;89.11;96142.84;4948156;28;20069;-68
2022/07/23 03:05:33;;;;;;;7.20;4.85;;;21.60;74.60;;;20.73;89.05;96146.03;4946183;28;20043;-69
2022/07/23 03:07:59;;;;;;;5.35;4.15;;;21.60;74.20;;;20.72;87.85;96141.75;4946375;28;20436;-68
2022/07/23 03:10:25;;;;;;;5.45;4.18;;;21.50;73.60;;;20.73;88.17;96132.66;4946929;28;20031;-67
2022/07/23 03:12:50;;;;;;;7.38;4.20;;;21.60;73.30;;;20.72;88.01;96130.25;4914394;28;20043;-68
2022/07/23 03:15:16;;;;;;;4.63;4.13;;;21.60;73.50;;;20.71;88.63;96137.47;4962228;28;20570;-68
2022/07/23 03:17:42;;;;;;;7.13;4.93;;;21.60;74.10;;;20.71;89.09;96134.78;4961117;28;20056;-68
2022/07/23 03:20:08;;;;;;;6.32;4.90;;;21.60;74.80;;;20.68;89.70;96123.81;4947225;28;20027;-67
2022/07/23 03:22:34;;;;;;;5.40;4.80;;;21.50;74.90;;;20.69;90.19;96130.75;4931503;28;20035;-66
2022/07/23 03:25:00;;;;;;;5.75;4.28;;;21.50;75.10;;;20.67;89.95;96127.53;4919739;29;20086;-67
2022/07/23 03:27:28;;;;;;;6.18;5.38;;;21.50;74.40;;;20.67;90.08;96123.00;4964228;28;20132;-66
2022/07/23 03:29:55;;;;;;;7.80;4.95;;;21.40;74.90;;;20.61;90.47;96117.84;4948970;28;20033;-67
2022/07/23 03:32:21;;;;;;;6.20;5.10;;;21.40;75.50;;;20.53;92.26;96104.94;4965836;28;20562;-66
2022/07/23 03:34:47;;;;;;;6.65;4.85;;;21.40;76.00;;;20.47;92.06;96109.41;4903790;28;20038;-66
2022/07/23 03:37:13;;;;;;;7.13;4.80;;;21.30;75.80;;;20.38;91.34;96108.22;4946444;28;20518;-66
2022/07/23 03:39:39;;;;;;;7.10;4.68;;;21.10;74.40;;;20.31;90.56;96087.03;4916462;28;20526;-67
2022/07/23 03:42:04;;;;;;;7.10;4.40;;;21.00;74.80;;;20.29;91.45;96091.00;4933673;28;20083;-67
2022/07/23 03:44:30;;;;;;;6.30;4.38;;;21.10;75.10;;;20.30;90.78;96111.31;4935348;28;20117;-66
2022/07/23 03:46:56;;;;;;;7.35;4.72;;;21.10;75.20;;;20.26;92.02;96126.25;4949146;28;20050;-66
2022/07/23 03:49:21;;;;;;;8.98;5.10;;;20.90;76.30;;;20.16;91.79;96129.59;4967000;28;20028;-67
2022/07/23 03:51:47;;;;;;;12.50;4.38;;;20.70;77.00;;;20.10;92.50;96131.38;4930786;28;20051;-66
2022/07/23 03:54:13;;;;;;;8.15;4.22;;;20.70;77.00;;;20.05;92.49;96111.81;4949653;28;20031;-66
2022/07/23 03:56:39;;;;;;;6.05;4.60;;;20.70;76.90;;;20.04;93.10;96107.53;4914936;28;20040;-66
2022/07/23 03:59:04;;;;;;;8.43;4.50;;;20.80;77.00;;;20.01;93.44;96100.03;4965408;28;20039;-66
2022/07/23 04:01:30;;;;;;;6.45;4.40;;;20.70;77.00;;;20.01;93.49;96082.16;4948480;28;20059;-65
2022/07/23 04:03:56;;;;;;;5.35;4.25;;;20.70;76.90;;;20.00;93.79;96080.53;4932002;28;20066;-66
2022/07/23 04:06:22;;;;;;;6.07;4.20;;;20.70;76.80;;;19.98;93.64;96085.31;4949153;28;20054;-66
2022/07/23 04:08:47;;;;;;;6.25;4.28;;;20.70;76.90;;;19.94;93.59;96091.41;4916889;28;20384;-66
2022/07/23 04:11:13;;;;;;;5.03;3.90;;;20.60;77.20;;;19.89;93.40;96094.78;4947799;28;20070;-66
2022/07/23 04:13:39;;;;;;;5.03;3.85;;;20.50;77.00;;;19.82;93.74;96091.50;4936402;28;20061;-66
2022/07/23 04:16:06;;;;;;;6.18;4.25;;;20.50;77.30;;;19.79;93.86;96089.34;4917517;29;20591;-66
2022/07/23 04:18:31;;;;;;;6.47;4.10;;;20.50;77.20;;;19.74;94.38;96091.94;4948107;28;20062;-67
2022/07/23 04:20:57;;;;;;;5.90;4.38;;;20.40;77.20;;;19.74;94.77;96089.28;4945306;28;20027;-68
2022/07/23 04:23:23;;;;;;;6.60;4.10;;;20.50;77.50;;;19.75;95.47;96098.91;4947695;28;20163;-69
2022/07/23 04:25:49;;;;;;;4.97;4.10;;;20.60;77.80;;;19.78;95.96;96093.88;4915548;28;20032;-68
2022/07/23 04:28:14;;;;;;;8.10;4.40;;;20.60;77.90;;;19.82;96.36;96078.16;4948967;28;20043;-69
2022/07/23 04:30:40;;;;;;;5.18;3.85;;;20.70;77.70;;;19.84;95.97;96076.84;4915080;28;20776;-69
2022/07/23 04:33:06;;;;;;;4.85;3.92;;;20.80;77.20;;;19.87;95.91;96081.69;4951050;28;20586;-69
2022/07/23 04:35:35;;;;;;;6.85;4.50;;;20.80;77.30;;;19.88;96.37;96077.16;4964737;28;20043;-68
2022/07/23 04:38:01;;;;;;;7.10;4.43;;;20.70;77.10;;;19.89;95.67;96076.09;4904659;29;20044;-68
2022/07/23 04:40:27;;;;;;;6.05;4.20;;;20.80;76.90;;;19.89;95.99;96078.78;4915819;29;20035;-68
2022/07/23 04:42:53;;;;;;;6.13;4.20;;;20.80;76.80;;;19.93;95.74;96090.59;4900985;28;20044;-69
2022/07/23 04:45:19;;;;;;;5.15;4.50;;;20.90;77.50;;;19.97;97.76;96093.56;4950112;28;20504;-68
2022/07/23 04:47:45;;;;;;;4.95;4.07;;;20.90;77.90;;;19.99;97.73;96089.59;4925484;28;20042;-68
2022/07/23 04:50:10;;;;;;;8.32;4.90;;;21.00;78.10;;;20.04;98.73;96092.31;4926558;28;20105;-69
2022/07/23 04:52:36;;;;;;;4.65;4.20;;;21.10;78.40;;;20.07;99.13;96086.47;4950750;29;20794;-68
2022/07/23 04:55:03;;;;;;;5.70;4.72;;;21.10;78.50;;;20.09;99.52;96081.69;4921017;28;20035;-68
2022/07/23 04:57:29;;;;;;;7.15;4.68;;;21.10;78.40;;;20.13;99.93;96080.13;4918244;28;20042;-68
2022/07/23 04:59:54;;;;;;;6.63;4.50;;;21.10;78.60;;;20.18;100.00;96074.06;4934735;29;20024;-68
2022/07/23 05:02:20;;;;;;;5.35;4.00;;;21.10;78.80;;;20.17;98.66;96062.59;4950239;28;20131;-69
2022/07/23 05:04:46;;;;;;;5.32;4.18;;;21.10;76.50;;;20.22;97.56;96061.03;4934170;28;20035;-68
2022/07/23 05:07:12;;;;;;;5.93;4.70;;;21.30;77.00;;;20.26;99.49;96068.28;4918229;28;20134;-68
2022/07/23 05:09:37;;;;;;;5.63;4.53;;;21.30;77.40;;;20.31;99.59;96060.31;4950041;28;20094;-68
2022/07/23 05:12:04;;;;;;;5.38;4.38;;;21.40;77.80;;;20.38;100.00;96068.16;4934640;29;20114;-68
2022/07/23 05:14:29;;;;;;;6.40;4.80;;;21.50;78.10;;;20.41;100.00;96065.00;4935395;28;20577;-68
2022/07/23 05:16:55;;;;;;;6.25;5.10;;;21.50;77.70;;;20.46;99.44;96067.72;4924780;28;20127;-68
2022/07/23 05:19:21;;;;;;;4.85;4.18;;;21.50;77.30;;;20.48;98.98;96079.75;4933558;28;20062;-68
2022/07/23 05:21:47;;;;;;;5.90;4.40;;;21.50;76.80;;;20.49;98.16;96080.56;4918778;29;20070;-68
2022/07/23 05:24:13;;;;;;;7.13;4.68;;;21.40;76.20;;;20.46;96.42;96068.53;4940339;28;20149;-69
2022/07/23 05:26:39;;;;;;;5.93;4.20;;;21.40;76.00;;;20.45;94.92;96068.78;4935089;28;20034;-68
2022/07/23 05:29:05;;;;;;;5.03;4.43;;;21.30;74.90;;;20.41;94.61;96068.47;4969463;28;20055;-68
2022/07/23 05:31:30;;;;;;;6.57;4.68;;;21.30;74.70;;;20.40;93.85;96071.38;4917246;28;20031;-68
2022/07/23 05:33:56;;;;;;;5.63;5.07;;;21.20;74.80;;;20.40;94.52;96074.06;4934058;29;20231;-68
2022/07/23 05:36:22;;;;;;;5.20;4.68;;;21.40;75.60;;;20.41;94.93;96070.34;4934205;28;20049;-68
2022/07/23 05:38:48;;;;;;;8.50;7.35;;;21.40;75.70;;;20.44;95.88;96088.53;4937896;28;20145;-68
2022/07/23 05:41:14;;;;;;;11.60;9.80;;;21.50;76.10;;;20.46;95.90;96084.56;4920223;28;20059;-68
2022/07/23 05:43:40;;;;;;;12.00;10.73;;;21.50;76.60;;;20.47;97.04;96101.41;4918202;29;20114;-68
2022/07/23 05:46:05;;;;;;;8.80;6.35;;;21.50;76.70;;;20.50;97.46;96100.88;4949790;28;20046;-68
2022/07/23 05:48:31;;;;;;;7.82;6.57;;;21.50;76.40;;;20.52;96.50;96106.78;4925458;28;20031;-68
2022/07/23 05:50:57;;;;;;;7.82;5.50;;;21.50;76.20;;;20.53;96.34;96103.06;4925833;29;20635;-67
2022/07/23 05:53:23;;;;;;;6.78;5.32;;;21.60;76.30;;;20.56;96.52;96107.91;4924367;28;20030;-67
2022/07/23 05:55:49;;;;;;;10.35;8.20;;;21.60;76.30;;;20.56;97.39;96115.91;4934244;29;20470;-67
2022/07/23 05:58:14;;;;;;;18.08;16.15;;;21.60;76.50;;;20.57;97.20;96116.72;4950114;28;20059;-68
2022/07/23 06:00:40;;;;;;;9.20;6.10;;;21.60;76.60;;;20.58;96.83;96108.44;4950140;28;20127;-68
2022/07/23 06:03:06;;;;;;;5.13;4.63;;;21.60;76.40;;;20.60;97.00;96111.72;4965515;28;20032;-68
2022/07/23 06:05:32;;;;;;;7.05;4.80;;;21.60;75.70;;;20.59;96.56;96104.72;4952319;28;20424;-68
2022/07/23 06:07:58;;;;;;;5.78;4.72;;;21.60;75.70;;;20.62;96.21;96100.75;4937325;29;20197;-67
2022/07/23 06:10:23;;;;;;;8.60;4.60;;;21.60;75.90;;;20.66;97.05;96105.34;4921619;29;20511;-67
2022/07/23 06:12:49;;;;;;;10.98;6.82;;;21.70;76.10;;;20.70;96.85;96106.44;4936705;29;20050;-67
2022/07/23 06:15:15;;;;;;;14.35;11.68;;;21.80;76.10;;;20.73;97.65;96105.94;4918334;28;20209;-69
2022/07/23 06:17:41;;;;;;;8.30;7.03;;;21.80;76.40;;;20.74;97.41;96102.22;4931119;28;20047;-69
2022/07/23 06:20:08;;;;;;;17.77;13.30;;;21.70;76.10;;;20.75;97.28;96095.78;4936687;29;20145;-68
2022/07/23 06:22:34;;;;;;;17.60;15.52;;;21.70;76.30;;;20.75;97.92;96090.44;4950879;28;20499;-67
2022/07/23 06:24:59;;;;;;;6.82;5.07;;;21.80;76.50;;;20.76;95.60;96089.38;4935138;28;20031;-68
2022/07/23 06:27:25;;;;;;;12.98;9.70;;;21.70;74.00;;;20.78;95.47;96089.13;4943215;28;20059;-68
2022/07/23 06:29:51;;;;;;;14.55;13.18;;;21.80;74.80;;;20.83;96.45;96072.34;4915160;29;20532;-67
2022/07/23 06:32:17;;;;;;;12.23;10.95;;;21.90;75.80;;;20.88;96.30;96059.84;4950572;28;20055;-70
2022/07/23 06:34:42;;;;;;;35.47;31.48;;;22.00;74.90;;;20.94;95.94;96048.09;4916842;29;20102;-68
2022/07/23 06:37:08;;;;;;;9.27;8.32;;;22.10;74.50;;;21.00;95.42;96052.44;4917265;29;20032;-68
2022/07/23 06:39:34;;;;;;;14.45;9.85;;;22.20;73.90;;;21.05;95.96;96044.47;4965324;28;20511;-68
2022/07/23 06:42:00;;;;;;;19.48;13.52;;;22.30;74.70;;;21.09;96.22;96044.75;4914819;29;20050;-69
2022/07/23 06:44:26;;;;;;;9.63;7.30;;;22.30;75.20;;;21.13;96.34;96055.75;4949785;28;20134;-68
2022/07/23 06:46:52;;;;;;;8.35;5.70;;;22.30;75.40;;;21.16;96.49;96076.63;4960301;28;20039;-68
2022/07/23 06:49:18;;;;;;;6.40;5.72;;;22.30;75.50;;;21.16;98.02;96093.47;4965641;28;20091;-68
2022/07/23 06:51:43;;;;;;;8.40;6.25;;;22.10;76.90;;;21.16;97.75;96135.47;4915753;29;20039;-68
2022/07/23 06:54:09;;;;;;;7.10;5.07;;;22.10;76.50;;;21.12;96.82;96150.44;4934320;29;20079;-67
2022/07/23 06:56:35;;;;;;;7.03;5.40;;;22.10;75.60;;;21.02;96.34;96186.69;4947530;28;20060;-67
2022/07/23 06:59:01;;;;;;;7.72;5.55;;;21.80;76.30;;;20.96;96.31;96179.69;4950075;28;20066;-68
2022/07/23 07:01:26;;;;;;;7.65;5.68;;;21.80;76.70;;;20.91;96.95;96165.47;4933804;28;20035;-65
2022/07/23 07:03:52;;;;;;;5.82;4.88;;;21.70;76.30;;;20.90;95.93;96169.19;4932209;28;20124;-68
2022/07/23 07:06:18;;;;;;;7.22;5.72;;;21.80;75.30;;;20.94;95.72;96165.78;4942248;28;20646;-70
2022/07/23 07:08:44;;;;;;;6.68;5.50;;;22.00;75.50;;;21.00;96.38;96170.09;4962558;28;20574;-68
2022/07/23 07:11:10;;;;;;;6.43;5.78;;;22.10;75.20;;;21.04;96.83;96157.03;4964473;28;20519;-70
2022/07/23 07:13:36;;;;;;;8.50;5.97;;;22.20;75.30;;;21.05;95.45;96161.34;4919737;28;20454;-69
2022/07/23 07:16:03;;;;;;;6.68;5.70;;;22.10;74.40;;;21.04;94.58;96157.03;4935077;28;20036;-66
2022/07/23 07:18:28;;;;;;;7.13;5.70;;;22.00;74.20;;;21.06;94.25;96146.91;4949035;28;20043;-66
2022/07/23 07:20:54;;;;;;;16.30;7.78;;;22.10;73.30;;;21.08;93.99;96150.13;4949754;28;20392;-67
2022/07/23 07:23:20;;;;;;;11.80;9.35;;;22.10;73.90;;;21.12;94.46;96150.44;4950074;28;20032;-65
2022/07/23 07:25:49;;;;;;;6.15;5.53;;;22.20;74.40;;;21.14;93.58;96148.31;4933837;28;20051;-65
2022/07/23 07:28:15;;;;;;;7.00;5.70;;;22.20;73.10;;;21.14;93.32;96140.28;4949558;28;20411;-66
2022/07/23 07:30:40;;;;;;;7.85;5.60;;;22.20;73.40;;;21.14;93.31;96138.41;4923912;28;20039;-66
2022/07/23 07:33:06;;;;;;;9.85;5.47;;;22.10;73.50;;;21.15;92.82;96150.72;4948948;28;20141;-66
2022/07/23 07:35:32;;;;;;;9.23;6.25;;;22.20;73.60;;;21.17;93.48;96145.13;4949185;28;20042;-66
2022/07/23 07:37:59;;;;;;;12.57;8.00;;;22.20;74.10;;;21.18;93.10;96144.06;4912751;29;20123;-66
2022/07/23 07:40:25;;;;;;;10.45;8.00;;;22.20;73.50;;;21.19;93.16;96151.00;4949093;28;20376;-65
2022/07/23 07:42:53;;;;;;;12.55;10.80;;;22.20;73.90;;;21.19;93.35;96145.66;4932774;28;20654;-66
2022/07/23 07:45:21;;;;;;;14.70;13.18;;;22.20;74.20;;;21.20;94.12;96136.56;4947350;28;20126;-65
2022/07/23 07:47:47;;;;;;;7.05;6.35;;;22.20;75.00;;;21.19;94.44;96141.13;4917196;29;20717;-65
2022/07/23 07:50:13;;;;;;;7.15;6.22;;;22.20;74.70;;;21.20;95.63;96168.69;4944693;28;20035;-65
2022/07/23 07:52:39;;;;;;;8.57;6.18;;;22.30;75.60;;;21.18;95.31;96176.97;4944799;29;20114;-66
2022/07/23 07:55:06;;;;;;;12.45;10.30;;;22.20;75.00;;;21.18;94.90;96166.25;4908838;29;20031;-65
2022/07/23 07:57:32;;;;;;;16.00;13.75;;;22.30;75.00;;;21.21;95.29;96165.75;4948350;28;20036;-65
2022/07/23 07:59:57;;;;;;;8.65;7.85;;;22.30;74.90;;;21.24;94.71;96170.63;4923384;29;20046;-65
2022/07/23 08:02:23;;;;;;;9.57;7.18;;;22.30;73.70;;;21.24;95.10;96172.47;4931840;29;20040;-66
2022/07/23 08:04:49;;;;;;;11.13;8.07;;;22.30;74.80;;;21.23;95.05;96179.66;4941465;28;20035;-66
2022/07/23 08:07:15;;;;;;;11.65;9.35;;;22.30;74.80;;;21.18;95.17;96181.50;4948275;28;20039;-66
2022/07/23 08:09:41;;;;;;;8.57;7.00;;;22.20;75.70;;;21.18;95.91;96181.50;4914289;29;20039;-65
2022/07/23 08:12:07;;;;;;;7.78;6.93;;;22.20;75.70;;;21.14;95.59;96183.88;4945392;28;20041;-66
2022/07/23 08:14:32;;;;;;;8.40;6.28;;;22.10;74.40;;;21.09;95.27;96187.31;4931691;28;20049;-65
2022/07/23 08:16:58;;;;;;;9.15;6.85;;;22.10;75.10;;;21.05;95.59;96186.22;4948785;28;20062;-67
2022/07/23 08:19:24;;;;;;;9.35;6.45;;;22.00;75.70;;;21.03;94.95;96185.63;4926771;28;20059;-66
2022/07/23 08:21:50;;;;;;;7.65;6.72;;;22.00;74.60;;;21.02;94.96;96178.69;4925657;29;20039;-66
2022/07/23 08:24:15;;;;;;;7.55;6.28;;;22.10;75.30;;;21.07;96.39;96177.94;4947042;28;20063;-65
2022/07/23 08:26:41;;;;;;;7.82;6.03;;;22.20;75.50;;;21.12;96.03;96183.34;4932418;28;20406;-65
2022/07/23 08:29:07;;;;;;;8.13;6.88;;;22.30;74.90;;;21.18;97.05;96201.03;4948703;29;20067;-63
2022/07/23 08:31:33;;;;;;;8.32;7.25;;;22.50;75.90;;;21.23;97.40;96195.72;4942894;28;20035;-63
2022/07/23 08:33:59;;;;;;;12.75;11.00;;;22.50;75.20;;;21.26;97.64;96179.19;4964569;28;20396;-63
2022/07/23 08:36:27;;;;;;;18.83;7.35;;;22.50;75.40;;;21.29;96.36;96162.66;4934614;28;20439;-64
2022/07/23 08:38:56;;;;;;;11.35;6.63;;;22.60;74.10;;;21.35;97.10;96187.56;4934883;29;20130;-63
2022/07/23 08:41:21;;;;;;;9.70;6.82;;;22.60;75.10;;;21.37;97.15;96190.81;4941967;28;20030;-63
2022/07/23 08:43:48;;;;;;;8.52;6.68;;;22.60;75.30;;;21.37;97.62;96202.31;4963312;28;20036;-64
2022/07/23 08:46:14;;;;;;;9.88;7.25;;;22.50;76.10;;;21.38;97.62;96195.91;4931963;28;20035;-65
2022/07/23 08:48:39;;;;;;;7.80;6.90;;;22.60;75.30;;;21.34;97.43;96216.22;4950582;28;20090;-64
2022/07/23 08:51:06;;;;;;;10.30;7.30;;;22.40;76.20;;;21.34;98.23;96213.53;4957489;28;20043;-63
2022/07/23 08:53:33;;;;;;;10.23;7.38;;;22.50;76.20;;;21.36;98.81;96222.09;4957833;28;20043;-65
2022/07/23 08:56:01;;;;;;;9.35;6.82;;;22.60;76.20;;;21.40;98.70;96244.63;4950358;28;20105;-65
2022/07/23 08:58:27;;;;;;;9.73;7.55;;;22.60;76.50;;;21.47;99.94;96248.94;4931477;29;20055;-64
2022/07/23 09:00:53;;;;;;;10.55;6.53;;;22.80;76.20;;;21.54;99.75;96249.56;4916426;29;20039;-65
2022/07/23 09:03:20;;;;;;;9.20;6.95;;;23.00;75.10;;;21.72;99.55;96230.41;4947629;28;20035;-65
2022/07/23 09:05:46;;;;;;;9.93;6.78;;;24.00;72.60;;;22.13;99.13;96218.16;4921900;28;20122;-65
2022/07/23 09:08:18;;;;;;;10.68;6.55;;;24.80;70.50;;;22.61;97.79;96233.16;4909692;29;20062;-65
2022/07/23 09:10:57;;;;;;;7.20;6.50;;;25.60;67.60;;;23.15;94.88;96216.72;4965926;28;20059;-64
2022/07/23 09:13:36;;;;;;;10.15;6.57;;;26.30;64.50;;;23.85;92.85;96227.00;4964196;28;20035;-65
2022/07/23 09:16:08;;;;;;;8.80;5.80;;;27.30;63.30;;;24.47;92.72;96242.00;4937029;29;20142;-65
2022/07/23 09:18:46;;;;;;;8.52;5.65;;;28.00;62.30;;;25.04;88.11;96241.50;4948210;28;20035;-65
2022/07/23 09:21:30;;;;;;;7.82;5.15;;;28.20;58.70;;;25.54;82.15;96240.38;4930203;28;20126;-66
2022/07/23 09:23:58;;;;;;;5.80;4.80;;;28.60;57.10;;;25.95;83.05;96232.00;4962252;28;20840;-65
2022/07/23 09:26:31;;;;;;;9.77;5.60;;;28.70;57.30;;;26.21;80.54;96233.38;4931889;28;20081;-67
2022/07/23 09:29:13;;;;;;;6.18;4.78;;;28.80;56.70;;;26.46;77.13;96226.94;4952116;28;20078;-65
2022/07/23 09:31:42;;;;;;;6.43;4.60;;;28.80;56.70;;;26.65;76.62;96227.00;4960789;28;20101;-68
2022/07/23 09:34:25;;;;;;;5.25;4.75;;;29.00;56.30;;;26.93;73.75;96222.59;4967708;28;20043;-65
2022/07/23 09:36:56;;;;;;;6.93;4.80;;;29.70;54.50;;;27.24;72.22;96227.63;4967190;28;20411;-66
2022/07/23 09:39:27;;;;;;;6.20;4.63;;;29.70;53.00;;;27.39;70.43;96225.53;4951240;28;20032;-65
2022/07/23 09:41:53;;;;;;;10.75;4.72;;;29.60;53.00;;;27.48;72.02;96232.97;4949465;28;20090;-66
2022/07/23 09:44:20;;;;;;;5.30;4.80;;;29.60;53.90;;;27.58;72.35;96238.19;4951515;28;20047;-66
2022/07/23 09:46:48;;;;;;;4.72;4.20;;;30.10;53.00;;;27.86;70.24;96229.13;4951632;28;20035;-65
2022/07/23 09:49:21;;;;;;;6.18;4.38;;;30.60;51.20;;;28.26;66.06;96232.25;4950979;28;20051;-66
2022/07/23 09:51:56;;;;;;;10.65;6.05;;;31.30;47.80;;;28.66;64.11;96236.09;4962722;28;20042;-66
2022/07/23 09:54:33;;;;;;;10.48;8.50;;;31.90;46.90;;;29.15;62.28;96227.25;4952161;28;20038;-66
2022/07/23 09:57:05;;;;;;;7.97;4.95;;;32.60;45.10;;;29.60;60.96;96232.75;4950967;28;20506;-67
2022/07/23 09:59:35;;;;;;;7.55;5.50;;;33.10;43.80;;;29.76;60.42;96230.50;4949866;28;20061;-68
2022/07/23 10:02:00;;;;;;;6.85;6.07;;;32.50;44.30;;;29.75;61.28;96223.47;4951021;28;20039;-67
2022/07/23 10:04:29;;;;;;;12.85;5.40;;;32.40;44.60;;;29.96;59.06;96221.06;4951983;28;20507;-68
2022/07/23 10:06:58;;;;;;;5.33;4.70;;;33.20;43.60;;;30.34;60.18;96219.56;4952017;28;20047;-67
2022/07/23 10:09:33;;;;;;;7.20;5.10;;;34.00;43.10;;;30.63;56.20;96210.91;4966208;28;20503;-67
2022/07/23 10:14:46;;;;;;;8.23;4.78;;;34.50;40.20;;;31.37;57.28;96212.81;4947116;28;20041;-67
2022/07/23 10:17:12;;;;;;;6.45;4.45;;;35.30;40.40;;;31.92;56.95;96212.19;4952896;28;20043;-67